< < Back
Terminal Aerodrome Forecast


Current Version              Previous Versions:   1  2  3  4  5  6  7  8  9  

Terminal Aerodrome Forecast

872
FTUS44 KBMX 270500
TAFTCL
TAF
KTCL 270527Z 2706/2806 32005KT P6SM SKC
     FM271500 32010G18KT P6SM SCT035
     FM272100 32008KT P6SM FEW040=



Latest METAR

922
SAUS70 KWBC 280300 RRN
MTRTCL
METAR KTCL 280253Z AUTO 00000KT 10SM CLR 02/M02 A3048 RMK AO2 SLP323
T00171017 53008


USA.gov is the U.S. government's official web portal to all federal, state and local government web resources and services.